Gaston, North Carolina
Current Conditions -  °F | °C
As of 1:35 PM on Thursday 27 Nov 2014 (Local Time) from KIXA Reporting Station
Broken Clouds Broken Clouds  
Wind Chill: 43°   Ceiling: 1100
Heat Index: 43°   Visibility: 10mi
Dew Point: 39°   Wind: 0mph
Humidity: 87%   Direction: NA
Pressure: 30.03"   Gusts: NA
Location:  36.5°N, 77.64°W
Report Text: KIXA 271835Z AUTO 00000KT 10SM BKN011 BKN016 BKN045 06/04 A3003 RMK AO2
Loading
Personal Weather Stations






























Interactive Weather Map New forecast layout! Learn more

10-Day Weather Forecast

Advertisements
Track Severe Weather on mobile